createdAt,value
2018-02-11T00:00:59.739Z,61.10
2018-02-11T00:03:27.195Z,61.50
2018-02-11T00:05:54.633Z,61.40
2018-02-11T00:08:22.074Z,61.40
2018-02-11T00:10:49.539Z,61.30
2018-02-11T00:13:16.970Z,61.50
2018-02-11T00:15:44.415Z,62.00
2018-02-11T00:18:11.855Z,62.00
2018-02-11T00:20:39.316Z,62.00
2018-02-11T00:23:09.696Z,61.90
2018-02-11T00:25:37.143Z,61.80
2018-02-11T00:28:04.604Z,62.10
2018-02-11T00:30:32.055Z,62.30
2018-02-11T00:32:59.562Z,62.20
2018-02-11T00:42:10.023Z,61.90
2018-02-11T00:44:37.486Z,61.50
2018-02-11T00:47:04.943Z,62.20
2018-02-11T00:49:32.395Z,62.10
2018-02-11T00:51:59.831Z,62.00
2018-02-11T00:54:27.312Z,61.90
2018-02-11T00:56:54.763Z,61.90
2018-02-11T00:59:22.211Z,62.00
2018-02-11T01:01:49.652Z,61.60
2018-02-11T01:04:17.108Z,61.70
2018-02-11T01:06:44.576Z,61.20
2018-02-11T01:09:12.060Z,61.70
2018-02-11T01:11:39.529Z,61.40
2018-02-11T01:14:06.971Z,61.40
2018-02-11T01:16:34.630Z,61.30
2018-02-11T01:19:02.084Z,61.00
2018-02-11T01:21:29.542Z,60.70
2018-02-11T01:23:56.973Z,60.60
2018-02-11T01:26:24.419Z,60.40
2018-02-11T01:28:51.858Z,60.40
2018-02-11T01:31:19.303Z,60.40
2018-02-11T01:33:46.785Z,60.90
2018-02-11T01:36:14.227Z,60.90
2018-02-11T01:38:41.747Z,60.70
2018-02-11T01:41:09.199Z,61.10
2018-02-11T01:43:36.651Z,61.40
2018-02-11T01:46:04.103Z,61.70
2018-02-11T01:48:31.571Z,61.40
2018-02-11T01:50:59.767Z,61.40
2018-02-11T01:53:27.243Z,61.30
2018-02-11T01:55:54.695Z,61.40
2018-02-11T01:58:22.138Z,61.50
2018-02-11T02:00:49.808Z,61.50
2018-02-11T02:03:17.268Z,61.80
2018-02-11T02:05:44.742Z,61.50
2018-02-11T02:08:12.707Z,61.10
2018-02-11T02:10:40.154Z,61.70
2018-02-11T02:13:07.622Z,61.60
2018-02-11T02:15:35.075Z,61.50
2018-02-11T02:18:02.539Z,61.10
2018-02-11T02:20:29.991Z,61.40
2018-02-11T02:22:57.576Z,61.20
2018-02-11T02:25:24.973Z,60.90
2018-02-11T02:27:52.421Z,61.00
2018-02-11T02:30:19.918Z,60.90
2018-02-11T02:32:47.367Z,61.00
2018-02-11T02:35:14.818Z,61.40
2018-02-11T02:37:42.271Z,61.40
2018-02-11T02:40:09.728Z,61.40
2018-02-11T02:42:37.184Z,61.50
2018-02-11T02:45:04.659Z,60.80
2018-02-11T02:47:32.119Z,60.80
2018-02-11T02:49:59.551Z,60.80
2018-02-11T02:52:26.988Z,61.10
2018-02-11T02:54:54.440Z,60.80
2018-02-11T02:57:21.912Z,61.10
2018-02-11T02:59:49.363Z,61.40
2018-02-11T03:02:16.860Z,61.70
2018-02-11T03:04:44.327Z,61.80
2018-02-11T03:07:11.779Z,60.90
2018-02-11T03:09:39.228Z,61.10
2018-02-11T03:12:06.687Z,61.70
2018-02-11T03:14:34.123Z,61.80
2018-02-11T03:17:01.567Z,61.40
2018-02-11T03:19:29.028Z,61.20
2018-02-11T03:21:56.695Z,61.70
2018-02-11T03:24:24.143Z,62.60
2018-02-11T03:26:51.735Z,62.90
2018-02-11T03:29:19.197Z,63.30
2018-02-11T03:31:46.637Z,63.10
2018-02-11T03:34:14.106Z,62.90
2018-02-11T03:36:41.568Z,63.10
2018-02-11T03:39:09.035Z,63.40
2018-02-11T03:41:36.486Z,62.60
2018-02-11T03:44:03.974Z,63.10
2018-02-11T03:46:31.427Z,62.80
2018-02-11T03:48:58.874Z,62.80
2018-02-11T03:51:26.337Z,62.60
2018-02-11T03:53:53.792Z,62.50
2018-02-11T03:56:21.239Z,62.10
2018-02-11T03:58:48.739Z,62.20
2018-02-11T04:01:16.957Z,62.50
2018-02-11T04:03:44.444Z,62.40
2018-02-11T04:06:11.892Z,61.70
2018-02-11T04:08:39.333Z,61.60
2018-02-11T04:11:06.862Z,60.90
2018-02-11T04:13:34.315Z,61.10
2018-02-11T04:16:01.793Z,61.00
2018-02-11T04:18:29.260Z,61.30
2018-02-11T04:20:56.698Z,61.70
2018-02-11T04:23:24.189Z,61.60
2018-02-11T04:25:51.624Z,63.10
2018-02-11T04:28:19.086Z,62.40
2018-02-11T04:30:46.554Z,63.00
2018-02-11T04:33:14.011Z,62.60
2018-02-11T04:35:41.455Z,62.20
2018-02-11T04:38:08.915Z,62.10
2018-02-11T04:40:36.349Z,62.00
2018-02-11T04:43:03.815Z,62.10
2018-02-11T04:45:31.270Z,62.40
2018-02-11T04:47:58.755Z,62.50
2018-02-11T04:50:26.196Z,63.00
2018-02-11T04:52:53.657Z,63.50
2018-02-11T04:55:21.139Z,64.00
2018-02-11T04:57:48.577Z,63.70
2018-02-11T05:00:16.052Z,64.30
2018-02-11T05:02:43.499Z,65.70
2018-02-11T05:05:10.973Z,66.30
2018-02-11T05:07:38.400Z,66.80
2018-02-11T05:10:05.856Z,66.80
2018-02-11T05:12:33.319Z,67.40
2018-02-11T05:15:00.783Z,67.10
2018-02-11T05:17:28.255Z,67.60
2018-02-11T05:19:55.690Z,67.80
2018-02-11T05:22:23.143Z,68.10
2018-02-11T05:24:50.601Z,68.60
2018-02-11T05:27:18.033Z,68.80
2018-02-11T05:29:45.499Z,69.00
2018-02-11T05:32:12.972Z,69.10
2018-02-11T05:34:40.419Z,68.90
2018-02-11T05:37:07.859Z,68.30
2018-02-11T05:39:35.323Z,68.10
2018-02-11T05:42:02.779Z,68.60
2018-02-11T05:44:30.209Z,68.50
2018-02-11T05:46:58.430Z,68.40
2018-02-11T05:49:25.923Z,68.30
2018-02-11T05:51:53.345Z,68.40
2018-02-11T05:54:20.812Z,68.20
2018-02-11T05:56:48.239Z,69.00
2018-02-11T05:59:15.718Z,68.70
2018-02-11T06:01:43.359Z,68.60
2018-02-11T06:04:10.804Z,68.00
2018-02-11T06:06:38.243Z,67.90
2018-02-11T06:09:05.697Z,68.20
2018-02-11T06:11:33.139Z,68.30
2018-02-11T06:14:00.582Z,68.80
2018-02-11T06:16:28.027Z,68.80
2018-02-11T06:18:55.458Z,69.00
2018-02-11T06:21:22.935Z,69.10
2018-02-11T06:23:50.496Z,69.30
2018-02-11T06:26:17.926Z,68.90
2018-02-11T06:28:45.377Z,68.50
2018-02-11T06:31:12.843Z,68.80
2018-02-11T06:33:40.295Z,68.60
2018-02-11T06:36:07.755Z,68.50
2018-02-11T06:38:35.221Z,68.50
2018-02-11T06:41:02.666Z,68.30
2018-02-11T06:50:13.491Z,67.50
2018-02-11T06:52:40.964Z,66.90
2018-02-11T06:55:08.423Z,67.10
2018-02-11T06:57:35.899Z,66.80
2018-02-11T07:00:03.339Z,66.80
2018-02-11T07:02:31.306Z,67.30
2018-02-11T07:04:58.732Z,67.30
2018-02-11T07:07:26.920Z,67.80
2018-02-11T07:09:54.805Z,67.70
2018-02-11T07:12:22.229Z,68.10
2018-02-11T07:14:49.680Z,68.30
2018-02-11T07:17:17.137Z,68.40
2018-02-11T07:19:44.600Z,68.10
2018-02-11T07:22:12.035Z,67.90
2018-02-11T07:24:39.508Z,67.60
2018-02-11T07:27:06.971Z,67.70
2018-02-11T07:29:34.439Z,67.40
2018-02-11T07:32:01.899Z,66.90
2018-02-11T07:34:29.349Z,65.80
2018-02-11T07:36:56.788Z,65.90
2018-02-11T07:39:24.226Z,65.10
2018-02-11T07:41:51.708Z,65.00
2018-02-11T07:44:19.119Z,64.20
2018-02-11T07:46:46.563Z,63.60
2018-02-11T07:49:14.028Z,63.30
2018-02-11T07:51:44.495Z,62.40
2018-02-11T07:54:11.952Z,61.40
2018-02-11T07:56:39.411Z,60.30
2018-02-11T07:59:06.856Z,60.40
2018-02-11T08:01:34.287Z,59.30
2018-02-11T08:04:01.731Z,58.60
2018-02-11T08:06:29.155Z,58.30
2018-02-11T08:08:57.379Z,57.30
2018-02-11T08:11:25.594Z,56.90
2018-02-11T08:13:54.687Z,56.40
2018-02-11T08:16:22.895Z,56.40
2018-02-11T08:18:50.336Z,56.40
2018-02-11T08:21:17.781Z,56.30
2018-02-11T08:23:45.228Z,56.50
2018-02-11T08:26:12.649Z,56.40
2018-02-11T08:28:40.100Z,56.00
2018-02-11T08:31:07.530Z,56.20
2018-02-11T08:33:34.970Z,56.20
2018-02-11T08:36:02.439Z,55.70
2018-02-11T08:38:29.866Z,55.70
2018-02-11T08:40:58.074Z,55.10
2018-02-11T08:43:25.511Z,55.00
2018-02-11T08:45:53.720Z,54.40
2018-02-11T08:48:21.159Z,54.30
2018-02-11T08:50:48.611Z,54.60
2018-02-11T08:53:16.812Z,54.70
2018-02-11T08:55:44.291Z,54.60
2018-02-11T08:58:11.755Z,53.90
2018-02-11T09:00:39.212Z,53.70
2018-02-11T09:03:06.645Z,53.20
2018-02-11T09:05:34.100Z,53.50
2018-02-11T09:08:01.528Z,53.10
2018-02-11T09:10:28.960Z,53.10
2018-02-11T09:12:56.420Z,52.50
2018-02-11T09:15:23.875Z,51.80
2018-02-11T09:17:51.332Z,51.60
2018-02-11T09:20:18.819Z,51.90
2018-02-11T09:22:46.242Z,52.00
2018-02-11T09:25:13.684Z,51.90
2018-02-11T09:27:41.125Z,52.00
2018-02-11T09:30:08.578Z,51.90
2018-02-11T09:32:36.011Z,51.90
2018-02-11T09:35:03.438Z,51.60
2018-02-11T09:37:31.641Z,50.30
2018-02-11T09:39:59.092Z,50.20
2018-02-11T09:42:26.539Z,49.70
2018-02-11T09:44:53.979Z,49.20
2018-02-11T09:47:21.420Z,49.00
2018-02-11T09:49:48.865Z,48.70
2018-02-11T09:52:16.321Z,48.00
2018-02-11T09:54:43.760Z,48.30
2018-02-11T09:57:11.216Z,48.50
2018-02-11T09:59:38.667Z,47.90
2018-02-11T10:02:06.125Z,47.90
2018-02-11T10:04:33.644Z,47.20
2018-02-11T10:07:01.080Z,46.90
2018-02-11T10:09:28.518Z,46.60
2018-02-11T10:11:55.978Z,45.90
2018-02-11T10:14:23.442Z,44.70
2018-02-11T10:16:50.871Z,43.20
2018-02-11T10:19:18.328Z,43.20
2018-02-11T10:21:45.775Z,42.10
2018-02-11T10:24:13.258Z,42.00
2018-02-11T10:26:40.840Z,43.50
2018-02-11T10:29:08.295Z,42.90
2018-02-11T10:31:35.732Z,42.50
2018-02-11T10:34:03.183Z,42.90
2018-02-11T10:36:31.388Z,43.40
2018-02-11T10:38:58.836Z,43.30
2018-02-11T10:41:26.282Z,43.00
2018-02-11T10:43:53.720Z,43.20
2018-02-11T10:46:21.185Z,43.50
2018-02-11T10:48:48.630Z,43.70
2018-02-11T10:51:16.051Z,43.50
2018-02-11T10:53:43.512Z,43.70
2018-02-11T10:56:10.964Z,44.40
2018-02-11T10:58:39.201Z,43.90
2018-02-11T11:01:06.645Z,43.80
2018-02-11T11:03:34.107Z,43.50
2018-02-11T11:06:01.568Z,43.90
2018-02-11T11:08:29.119Z,44.10
2018-02-11T11:10:56.580Z,44.40
2018-02-11T11:13:24.018Z,43.50
2018-02-11T11:15:51.463Z,43.30
2018-02-11T11:18:18.907Z,43.90
2018-02-11T11:20:46.372Z,43.40
2018-02-11T11:23:13.827Z,42.90
2018-02-11T11:25:41.314Z,42.90
2018-02-11T11:28:08.757Z,43.20
2018-02-11T11:30:36.225Z,43.60
2018-02-11T11:33:03.707Z,42.80
2018-02-11T11:35:31.167Z,43.10
2018-02-11T11:37:58.627Z,43.50
2018-02-11T11:40:26.067Z,44.30
2018-02-11T11:42:53.519Z,44.10
2018-02-11T11:45:20.972Z,43.70
2018-02-11T11:47:48.440Z,43.40
2018-02-11T11:50:15.903Z,43.00
2018-02-11T11:52:43.336Z,43.80
2018-02-11T11:55:10.791Z,43.40
2018-02-11T11:57:38.239Z,43.30
2018-02-11T12:00:05.686Z,43.10
2018-02-11T12:02:33.109Z,44.50
2018-02-11T12:05:00.550Z,45.10
2018-02-11T12:07:28.066Z,44.60
2018-02-11T12:09:55.515Z,44.90
2018-02-11T12:12:22.971Z,46.00
2018-02-11T12:14:50.414Z,47.10
2018-02-11T12:17:17.871Z,47.20
2018-02-11T12:19:45.317Z,47.20
2018-02-11T12:22:12.752Z,46.50
2018-02-11T12:24:40.223Z,46.40
2018-02-11T12:27:07.651Z,45.00
2018-02-11T12:29:35.098Z,43.10
2018-02-11T12:32:02.549Z,41.80
2018-02-11T12:34:30.009Z,42.70
2018-02-11T12:36:57.556Z,43.50
2018-02-11T12:39:25.008Z,45.20
2018-02-11T12:41:52.443Z,47.10
2018-02-11T12:44:19.878Z,49.70
2018-02-11T12:46:47.310Z,50.70
2018-02-11T12:49:14.752Z,50.80
2018-02-11T12:51:42.206Z,51.90
2018-02-11T12:54:09.635Z,52.80
2018-02-11T12:56:37.110Z,53.00
2018-02-11T12:59:04.582Z,53.00
2018-02-11T13:01:32.025Z,53.20
2018-02-11T13:03:59.455Z,53.70
2018-02-11T13:06:26.916Z,53.80
2018-02-11T13:08:54.358Z,54.00
2018-02-11T13:11:21.795Z,53.90
2018-02-11T13:13:49.242Z,53.50
2018-02-11T13:16:16.684Z,53.90
2018-02-11T13:18:44.154Z,53.70
2018-02-11T13:21:11.732Z,54.20
2018-02-11T13:23:39.179Z,54.30
2018-02-11T13:26:06.647Z,54.30
2018-02-11T13:28:34.073Z,54.50
2018-02-11T13:31:01.519Z,54.30
2018-02-11T13:33:28.983Z,54.80
2018-02-11T13:35:56.422Z,54.70
2018-02-11T13:38:23.851Z,54.50
2018-02-11T13:40:52.072Z,56.30
2018-02-11T13:43:19.502Z,56.30
2018-02-11T13:45:46.977Z,56.90
2018-02-11T13:48:14.411Z,57.50
2018-02-11T13:50:41.872Z,57.20
2018-02-11T13:53:09.306Z,57.90
2018-02-11T13:55:36.733Z,58.30
2018-02-11T13:58:05.140Z,59.10
2018-02-11T14:00:32.591Z,60.50
2018-02-11T14:03:00.030Z,61.40
2018-02-11T14:05:27.546Z,62.00
2018-02-11T14:07:54.976Z,62.00
2018-02-11T14:10:22.399Z,62.80
2018-02-11T14:12:49.840Z,63.40
2018-02-11T14:15:17.267Z,63.90
2018-02-11T14:17:44.720Z,64.90
2018-02-11T14:20:12.143Z,65.10
2018-02-11T14:22:40.349Z,66.40
2018-02-11T14:25:07.819Z,65.60
2018-02-11T14:27:35.282Z,66.30
2018-02-11T14:30:02.720Z,67.50
2018-02-11T14:32:30.147Z,67.70
2018-02-11T14:34:57.603Z,67.80
2018-02-11T14:37:25.028Z,67.90
2018-02-11T14:39:52.464Z,69.70
2018-02-11T14:42:19.921Z,71.00
2018-02-11T14:44:47.378Z,71.40
2018-02-11T14:47:14.826Z,72.00
2018-02-11T14:49:42.397Z,73.70
2018-02-11T14:52:09.829Z,74.70
2018-02-11T14:54:37.276Z,76.00
2018-02-11T14:57:04.710Z,76.10
2018-02-11T14:59:32.432Z,76.50
2018-02-11T15:01:59.861Z,76.70
2018-02-11T15:04:27.293Z,80.10
2018-02-11T15:06:54.727Z,80.00
2018-02-11T15:09:22.165Z,79.60
2018-02-11T15:11:49.831Z,79.80
2018-02-11T15:14:17.994Z,81.20
2018-02-11T15:16:45.434Z,81.10
2018-02-11T15:19:12.892Z,82.40
2018-02-11T15:21:40.339Z,83.20
2018-02-11T15:24:07.780Z,86.90
2018-02-11T15:26:35.983Z,84.40
2018-02-11T15:29:03.413Z,84.40
2018-02-11T15:31:31.634Z,84.30
2018-02-11T15:33:59.067Z,84.20
2018-02-11T15:36:26.500Z,83.60
2018-02-11T15:38:53.959Z,83.40
2018-02-11T15:41:21.423Z,84.00
2018-02-11T15:43:48.868Z,85.80
2018-02-11T15:46:16.308Z,85.00
2018-02-11T15:48:43.755Z,86.00
2018-02-11T15:51:11.189Z,87.00
2018-02-11T15:53:38.644Z,86.40
2018-02-11T15:56:06.167Z,89.60
2018-02-11T15:58:33.615Z,88.40
2018-02-11T16:01:01.812Z,88.10
2018-02-11T16:03:29.260Z,88.10
2018-02-11T16:05:56.724Z,86.40
2018-02-11T16:08:24.180Z,87.00
2018-02-11T16:10:51.623Z,87.80
2018-02-11T16:13:19.831Z,88.10
2018-02-11T16:15:47.267Z,87.80
2018-02-11T16:18:14.803Z,87.60
2018-02-11T16:20:42.258Z,86.80
2018-02-11T16:23:09.700Z,86.70
2018-02-11T16:25:37.139Z,89.40
2018-02-11T16:28:04.579Z,88.60
2018-02-11T16:30:32.030Z,89.00
2018-02-11T16:32:59.460Z,89.30
2018-02-11T16:35:26.911Z,90.00
2018-02-11T16:37:54.351Z,90.50
2018-02-11T16:40:22.564Z,89.80
2018-02-11T16:42:50.012Z,90.10
2018-02-11T16:45:17.443Z,90.60
2018-02-11T16:47:44.903Z,91.00
2018-02-11T16:50:12.358Z,91.30
2018-02-11T16:52:39.808Z,91.50
2018-02-11T16:55:07.227Z,91.50
2018-02-11T16:57:34.679Z,91.80
2018-02-11T17:00:02.126Z,91.70
2018-02-11T17:02:29.675Z,91.70
2018-02-11T17:04:57.106Z,92.00
2018-02-11T17:07:24.543Z,92.20
2018-02-11T17:09:51.999Z,92.30
2018-02-11T17:12:19.455Z,92.40
2018-02-11T17:14:46.889Z,92.30
2018-02-11T17:17:14.386Z,92.40
2018-02-11T17:19:42.078Z,93.10
2018-02-11T17:22:09.503Z,93.70
2018-02-11T17:24:37.731Z,93.10
2018-02-11T17:27:05.178Z,93.10
2018-02-11T17:29:32.622Z,93.90
2018-02-11T17:32:00.049Z,93.70
2018-02-11T17:34:27.495Z,94.20
2018-02-11T17:36:54.951Z,93.60
2018-02-11T17:39:22.418Z,93.70
2018-02-11T17:41:49.875Z,93.80
2018-02-11T17:44:17.314Z,93.90
2018-02-11T17:46:44.820Z,94.10
2018-02-11T17:49:12.260Z,94.30
2018-02-11T17:51:39.711Z,94.30
2018-02-11T17:54:07.139Z,94.70
2018-02-11T17:56:34.596Z,94.70
2018-02-11T17:59:02.054Z,94.90
2018-02-11T18:01:29.487Z,95.00
2018-02-11T18:03:56.938Z,95.20
2018-02-11T18:06:24.564Z,95.40
2018-02-11T18:08:58.983Z,94.50
2018-02-11T18:11:27.288Z,94.40
2018-02-11T18:13:54.759Z,94.70
2018-02-11T18:16:22.192Z,94.80
2018-02-11T18:18:49.646Z,94.50
2018-02-11T18:21:17.079Z,94.50
2018-02-11T18:23:45.302Z,94.50
2018-02-11T18:26:12.752Z,94.10
2018-02-11T18:28:40.180Z,94.40
2018-02-11T18:31:07.671Z,94.80
2018-02-11T18:33:35.148Z,94.90
2018-02-11T18:36:02.586Z,94.80
2018-02-11T18:38:30.070Z,95.10
2018-02-11T18:40:57.528Z,95.00
2018-02-11T18:43:24.999Z,94.40
2018-02-11T18:45:52.444Z,94.90
2018-02-11T18:48:19.891Z,93.50
2018-02-11T18:50:47.353Z,93.40
2018-02-11T18:53:14.816Z,94.20
2018-02-11T18:55:42.286Z,94.20
2018-02-11T18:58:09.735Z,93.90
2018-02-11T19:00:37.190Z,94.00
2018-02-11T19:03:04.636Z,93.80
2018-02-11T19:05:32.072Z,94.50
2018-02-11T19:07:59.506Z,94.20
2018-02-11T19:10:27.003Z,93.70
2018-02-11T19:12:54.534Z,92.90
2018-02-11T19:15:21.991Z,94.30
2018-02-11T19:17:49.466Z,94.20
2018-02-11T19:20:16.932Z,94.30
2018-02-11T19:22:44.375Z,93.90
2018-02-11T19:25:11.844Z,93.40
2018-02-11T19:27:39.286Z,94.30
2018-02-11T19:30:06.708Z,94.10
2018-02-11T19:32:34.139Z,94.10
2018-02-11T19:35:01.590Z,93.10
2018-02-11T19:37:29.031Z,91.70
2018-02-11T19:39:56.471Z,92.40
2018-02-11T19:42:23.917Z,92.10
2018-02-11T19:44:51.366Z,92.40
2018-02-11T19:47:18.847Z,92.50
2018-02-11T19:49:46.283Z,92.80
2018-02-11T19:52:13.796Z,92.40
2018-02-11T19:54:41.255Z,93.20
2018-02-11T19:57:09.264Z,92.40
2018-02-11T19:59:36.698Z,92.60
2018-02-11T20:02:04.116Z,92.70
2018-02-11T20:04:31.559Z,91.60
2018-02-11T20:06:59.014Z,91.40
2018-02-11T20:09:26.488Z,91.90
2018-02-11T20:11:53.956Z,91.60
2018-02-11T20:14:21.408Z,92.00
2018-02-11T20:16:48.848Z,92.10
2018-02-11T20:19:16.416Z,91.70
2018-02-11T20:21:43.868Z,91.40
2018-02-11T20:24:11.311Z,91.50
2018-02-11T20:26:38.772Z,91.90
2018-02-11T20:29:06.207Z,90.90
2018-02-11T20:31:33.668Z,91.60
2018-02-11T20:34:01.146Z,91.60
2018-02-11T20:36:28.611Z,91.50
2018-02-11T20:38:56.075Z,90.70
2018-02-11T20:41:23.511Z,91.20
2018-02-11T20:43:50.968Z,91.40
2018-02-11T20:46:18.431Z,91.00
2018-02-11T20:48:45.847Z,90.10
2018-02-11T20:51:13.314Z,91.00
2018-02-11T20:53:40.763Z,90.10
2018-02-11T20:56:08.227Z,90.20
2018-02-11T20:58:35.675Z,90.70
2018-02-11T21:01:03.170Z,91.20
2018-02-11T21:03:30.630Z,90.90
2018-02-11T21:05:58.069Z,91.20
2018-02-11T21:08:25.536Z,91.40
2018-02-11T21:10:53.027Z,91.90
2018-02-11T21:13:20.511Z,91.10
2018-02-11T21:15:47.961Z,91.10
2018-02-11T21:18:15.387Z,90.90
2018-02-11T21:20:42.835Z,91.10
2018-02-11T21:23:10.283Z,91.50
2018-02-11T21:25:37.715Z,91.90
2018-02-11T21:28:05.163Z,91.90
2018-02-11T21:30:32.604Z,91.40
2018-02-11T21:33:00.071Z,91.40
2018-02-11T21:35:27.511Z,91.30
2018-02-11T21:37:54.959Z,91.60
2018-02-11T21:40:22.396Z,91.70
2018-02-11T21:42:49.851Z,91.20
2018-02-11T21:45:17.287Z,91.00
2018-02-11T21:47:44.822Z,90.80
2018-02-11T21:50:12.285Z,91.30
2018-02-11T21:52:39.736Z,91.10
2018-02-11T21:55:07.935Z,91.50
2018-02-11T21:57:35.383Z,91.40
2018-02-11T22:00:02.861Z,91.60
2018-02-11T22:02:30.304Z,91.60
2018-02-11T22:04:57.734Z,91.10
2018-02-11T22:07:25.186Z,90.30
2018-02-11T22:09:52.615Z,90.70
2018-02-11T22:12:20.055Z,91.10
2018-02-11T22:14:47.511Z,90.20
2018-02-11T22:17:14.966Z,90.90
2018-02-11T22:19:42.402Z,91.70
2018-02-11T22:22:09.891Z,90.80
2018-02-11T22:24:37.310Z,91.70
2018-02-11T22:27:04.739Z,91.90
2018-02-11T22:29:32.186Z,92.00
2018-02-11T22:31:59.652Z,91.70
2018-02-11T22:34:27.107Z,91.50
2018-02-11T22:36:54.535Z,91.10
2018-02-11T22:39:21.975Z,91.60
2018-02-11T22:41:49.410Z,91.70
2018-02-11T22:44:16.871Z,91.50
2018-02-11T22:46:44.344Z,91.60
2018-02-11T22:49:11.791Z,91.70
2018-02-11T22:51:39.568Z,91.90
2018-02-11T22:54:06.991Z,92.00
2018-02-11T22:56:34.428Z,91.60
2018-02-11T22:59:01.866Z,91.60
2018-02-11T23:01:29.306Z,90.40
2018-02-11T23:03:56.748Z,91.60
2018-02-11T23:06:24.218Z,90.80
2018-02-11T23:08:51.651Z,91.80
2018-02-11T23:11:19.091Z,91.70
2018-02-11T23:13:46.523Z,92.60
2018-02-11T23:16:13.961Z,92.10
2018-02-11T23:18:41.403Z,91.30
2018-02-11T23:21:08.831Z,90.50
2018-02-11T23:23:36.278Z,90.10
2018-02-11T23:26:03.742Z,90.10
2018-02-11T23:28:31.172Z,89.50
2018-02-11T23:30:58.607Z,89.90
2018-02-11T23:33:26.036Z,89.10
2018-02-11T23:35:53.550Z,89.10
2018-02-11T23:38:21.003Z,89.00
2018-02-11T23:40:48.436Z,88.30
2018-02-11T23:43:15.862Z,89.40
2018-02-11T23:45:43.299Z,89.40
2018-02-11T23:48:10.731Z,87.70
2018-02-11T23:50:38.962Z,87.30
2018-02-11T23:53:07.173Z,87.60
2018-02-11T23:55:34.601Z,87.60
2018-02-11T23:58:02.240Z,86.50
